sensor_id;sensor_type;location;lat;lon;timestamp;temperature;humidity
34095;DHT22;20372;47.080;15.410;2023-05-16T00:00:00;12.50;99.90
34095;DHT22;20372;47.080;15.410;2023-05-16T00:02:26;12.60;99.90
34095;DHT22;20372;47.080;15.410;2023-05-16T00:04:52;12.60;99.90
34095;DHT22;20372;47.080;15.410;2023-05-16T00:07:18;12.70;99.90
34095;DHT22;20372;47.080;15.410;2023-05-16T00:09:44;12.70;99.90
34095;DHT22;20372;47.080;15.410;2023-05-16T00:12:11;12.70;99.90
34095;DHT22;20372;47.080;15.410;2023-05-16T00:14:37;12.70;99.90
34095;DHT22;20372;47.080;15.410;2023-05-16T00:17:03;12.70;99.90
34095;DHT22;20372;47.080;15.410;2023-05-16T00:19:38;12.70;99.90
34095;DHT22;20372;47.080;15.410;2023-05-16T00:22:06;12.70;99.90
34095;DHT22;20372;47.080;15.410;2023-05-16T00:24:33;12.60;99.90
34095;DHT22;20372;47.080;15.410;2023-05-16T00:26:58;12.70;99.90
34095;DHT22;20372;47.080;15.410;2023-05-16T00:29:24;12.60;99.90
34095;DHT22;20372;47.080;15.410;2023-05-16T00:31:50;12.60;99.90
34095;DHT22;20372;47.080;15.410;2023-05-16T00:34:16;12.60;99.90
34095;DHT22;20372;47.080;15.410;2023-05-16T00:36:42;12.60;99.90
34095;DHT22;20372;47.080;15.410;2023-05-16T00:39:08;12.60;99.90
34095;DHT22;20372;47.080;15.410;2023-05-16T00:41:35;12.50;99.90
34095;DHT22;20372;47.080;15.410;2023-05-16T00:44:01;12.50;99.90
34095;DHT22;20372;47.080;15.410;2023-05-16T00:46:27;12.50;99.90
34095;DHT22;20372;47.080;15.410;2023-05-16T00:48:52;12.40;99.90
34095;DHT22;20372;47.080;15.410;2023-05-16T00:51:18;12.10;99.90
34095;DHT22;20372;47.080;15.410;2023-05-16T00:53:44;12.10;99.90
34095;DHT22;20372;47.080;15.410;2023-05-16T00:56:10;12.20;99.90
34095;DHT22;20372;47.080;15.410;2023-05-16T00:58:35;12.30;99.90
34095;DHT22;20372;47.080;15.410;2023-05-16T01:01:02;12.50;99.90
34095;DHT22;20372;47.080;15.410;2023-05-16T01:03:30;12.50;99.90
34095;DHT22;20372;47.080;15.410;2023-05-16T01:05:56;12.60;99.90
34095;DHT22;20372;47.080;15.410;2023-05-16T01:08:22;12.50;99.90
34095;DHT22;20372;47.080;15.410;2023-05-16T01:13:21;12.50;99.90
34095;DHT22;20372;47.080;15.410;2023-05-16T01:16:32;12.50;99.90
34095;DHT22;20372;47.080;15.410;2023-05-16T01:21:15;12.70;99.90
34095;DHT22;20372;47.080;15.410;2023-05-16T01:23:51;12.80;99.90
34095;DHT22;20372;47.080;15.410;2023-05-16T01:26:18;12.80;99.90
34095;DHT22;20372;47.080;15.410;2023-05-16T01:28:45;12.80;99.90
34095;DHT22;20372;47.080;15.410;2023-05-16T01:31:11;12.70;99.90
34095;DHT22;20372;47.080;15.410;2023-05-16T01:33:36;12.60;99.90
34095;DHT22;20372;47.080;15.410;2023-05-16T01:38:52;12.60;99.90
34095;DHT22;20372;47.080;15.410;2023-05-16T01:43:42;12.70;99.90
34095;DHT22;20372;47.080;15.410;2023-05-16T01:46:17;12.80;99.90
34095;DHT22;20372;47.080;15.410;2023-05-16T01:48:52;12.80;99.90
34095;DHT22;20372;47.080;15.410;2023-05-16T01:51:19;12.80;99.90
34095;DHT22;20372;47.080;15.410;2023-05-16T01:53:45;12.80;99.90
34095;DHT22;20372;47.080;15.410;2023-05-16T01:56:13;12.70;99.90
34095;DHT22;20372;47.080;15.410;2023-05-16T01:58:39;12.60;99.90
34095;DHT22;20372;47.080;15.410;2023-05-16T02:01:06;12.60;99.90
34095;DHT22;20372;47.080;15.410;2023-05-16T02:03:32;12.60;99.90
34095;DHT22;20372;47.080;15.410;2023-05-16T02:05:58;12.50;99.90
34095;DHT22;20372;47.080;15.410;2023-05-16T02:08:24;12.50;99.90
34095;DHT22;20372;47.080;15.410;2023-05-16T02:10:50;12.40;99.90
34095;DHT22;20372;47.080;15.410;2023-05-16T02:13:16;12.50;99.90
34095;DHT22;20372;47.080;15.410;2023-05-16T02:15:42;12.50;99.90
34095;DHT22;20372;47.080;15.410;2023-05-16T02:18:08;12.50;99.90
34095;DHT22;20372;47.080;15.410;2023-05-16T02:20:34;12.50;99.90
34095;DHT22;20372;47.080;15.410;2023-05-16T02:22:59;12.60;99.90
34095;DHT22;20372;47.080;15.410;2023-05-16T02:25:25;12.50;99.90
34095;DHT22;20372;47.080;15.410;2023-05-16T02:27:51;12.50;99.90
34095;DHT22;20372;47.080;15.410;2023-05-16T02:30:17;12.60;99.90
34095;DHT22;20372;47.080;15.410;2023-05-16T02:32:42;12.70;99.90
34095;DHT22;20372;47.080;15.410;2023-05-16T02:35:10;12.70;99.90
34095;DHT22;20372;47.080;15.410;2023-05-16T02:37:36;12.70;99.90
34095;DHT22;20372;47.080;15.410;2023-05-16T02:40:03;12.70;99.90
34095;DHT22;20372;47.080;15.410;2023-05-16T02:42:32;12.70;99.90
34095;DHT22;20372;47.080;15.410;2023-05-16T02:44:58;12.80;99.90
34095;DHT22;20372;47.080;15.410;2023-05-16T02:47:24;12.80;99.90
34095;DHT22;20372;47.080;15.410;2023-05-16T02:49:50;12.80;99.90
34095;DHT22;20372;47.080;15.410;2023-05-16T02:52:18;12.80;99.90
34095;DHT22;20372;47.080;15.410;2023-05-16T02:54:44;12.80;99.90
34095;DHT22;20372;47.080;15.410;2023-05-16T02:57:10;12.70;99.90
34095;DHT22;20372;47.080;15.410;2023-05-16T02:59:36;12.70;99.90
34095;DHT22;20372;47.080;15.410;2023-05-16T03:02:02;12.70;99.90
34095;DHT22;20372;47.080;15.410;2023-05-16T03:04:27;12.60;99.90
34095;DHT22;20372;47.080;15.410;2023-05-16T03:06:53;12.60;99.90
34095;DHT22;20372;47.080;15.410;2023-05-16T03:09:19;12.60;99.90
34095;DHT22;20372;47.080;15.410;2023-05-16T03:11:45;12.50;99.90
34095;DHT22;20372;47.080;15.410;2023-05-16T03:14:10;12.60;99.90
34095;DHT22;20372;47.080;15.410;2023-05-16T03:16:36;12.70;99.90
34095;DHT22;20372;47.080;15.410;2023-05-16T03:19:06;12.70;99.90
34095;DHT22;20372;47.080;15.410;2023-05-16T03:21:31;12.70;99.90
34095;DHT22;20372;47.080;15.410;2023-05-16T03:23:57;12.70;99.90
34095;DHT22;20372;47.080;15.410;2023-05-16T03:26:23;12.70;99.90
34095;DHT22;20372;47.080;15.410;2023-05-16T03:28:48;12.70;99.90
34095;DHT22;20372;47.080;15.410;2023-05-16T03:31:15;12.90;99.90
34095;DHT22;20372;47.080;15.410;2023-05-16T03:33:41;13.10;99.90
34095;DHT22;20372;47.080;15.410;2023-05-16T03:36:07;13.10;99.90
34095;DHT22;20372;47.080;15.410;2023-05-16T03:38:33;13.10;99.90
34095;DHT22;20372;47.080;15.410;2023-05-16T03:40:59;13.10;99.90
34095;DHT22;20372;47.080;15.410;2023-05-16T03:43:25;13.00;99.90
34095;DHT22;20372;47.080;15.410;2023-05-16T03:45:51;13.00;99.90
34095;DHT22;20372;47.080;15.410;2023-05-16T03:48:16;13.00;99.90
34095;DHT22;20372;47.080;15.410;2023-05-16T03:50:42;12.90;99.90
34095;DHT22;20372;47.080;15.410;2023-05-16T03:53:08;12.80;99.90
34095;DHT22;20372;47.080;15.410;2023-05-16T03:55:34;12.80;99.90
34095;DHT22;20372;47.080;15.410;2023-05-16T03:57:59;12.90;99.90
34095;DHT22;20372;47.080;15.410;2023-05-16T04:00:25;12.90;99.90
34095;DHT22;20372;47.080;15.410;2023-05-16T04:02:51;12.90;99.90
34095;DHT22;20372;47.080;15.410;2023-05-16T04:05:16;12.70;99.90
34095;DHT22;20372;47.080;15.410;2023-05-16T04:07:42;12.50;99.90
34095;DHT22;20372;47.080;15.410;2023-05-16T04:10:08;12.40;99.90
34095;DHT22;20372;47.080;15.410;2023-05-16T04:12:34;12.50;99.90
34095;DHT22;20372;47.080;15.410;2023-05-16T04:15:01;12.60;99.90
34095;DHT22;20372;47.080;15.410;2023-05-16T04:17:27;12.70;99.90
34095;DHT22;20372;47.080;15.410;2023-05-16T04:19:52;12.80;99.90
34095;DHT22;20372;47.080;15.410;2023-05-16T04:22:20;12.90;99.90
34095;DHT22;20372;47.080;15.410;2023-05-16T04:24:45;13.00;99.90
34095;DHT22;20372;47.080;15.410;2023-05-16T04:27:11;12.90;99.90
34095;DHT22;20372;47.080;15.410;2023-05-16T04:29:36;12.80;99.90
34095;DHT22;20372;47.080;15.410;2023-05-16T04:32:02;12.70;99.90
34095;DHT22;20372;47.080;15.410;2023-05-16T04:34:28;12.50;99.90
34095;DHT22;20372;47.080;15.410;2023-05-16T04:36:53;12.30;99.90
34095;DHT22;20372;47.080;15.410;2023-05-16T04:39:19;12.30;99.90
34095;DHT22;20372;47.080;15.410;2023-05-16T04:41:45;12.30;99.90
34095;DHT22;20372;47.080;15.410;2023-05-16T04:44:11;12.30;99.90
34095;DHT22;20372;47.080;15.410;2023-05-16T04:46:36;12.30;99.90
34095;DHT22;20372;47.080;15.410;2023-05-16T04:49:02;12.30;99.90
34095;DHT22;20372;47.080;15.410;2023-05-16T04:51:27;12.20;99.90
34095;DHT22;20372;47.080;15.410;2023-05-16T04:53:53;12.20;99.90
34095;DHT22;20372;47.080;15.410;2023-05-16T04:56:19;12.20;99.90
34095;DHT22;20372;47.080;15.410;2023-05-16T04:58:45;12.20;99.90
34095;DHT22;20372;47.080;15.410;2023-05-16T05:01:11;12.00;99.90
34095;DHT22;20372;47.080;15.410;2023-05-16T05:03:36;11.80;99.90
34095;DHT22;20372;47.080;15.410;2023-05-16T05:06:02;11.70;99.90
34095;DHT22;20372;47.080;15.410;2023-05-16T05:08:28;11.70;99.90
34095;DHT22;20372;47.080;15.410;2023-05-16T05:10:55;11.80;99.90
34095;DHT22;20372;47.080;15.410;2023-05-16T05:13:20;11.90;99.90
34095;DHT22;20372;47.080;15.410;2023-05-16T05:15:46;11.90;99.90
34095;DHT22;20372;47.080;15.410;2023-05-16T05:18:11;11.90;99.90
34095;DHT22;20372;47.080;15.410;2023-05-16T05:20:37;12.00;99.90
34095;DHT22;20372;47.080;15.410;2023-05-16T05:23:03;11.90;99.90
34095;DHT22;20372;47.080;15.410;2023-05-16T05:25:28;11.90;99.90
34095;DHT22;20372;47.080;15.410;2023-05-16T05:27:54;11.90;99.90
34095;DHT22;20372;47.080;15.410;2023-05-16T05:30:20;12.00;99.90
34095;DHT22;20372;47.080;15.410;2023-05-16T05:32:45;12.00;99.90
34095;DHT22;20372;47.080;15.410;2023-05-16T05:35:11;11.90;99.90
34095;DHT22;20372;47.080;15.410;2023-05-16T05:37:36;11.70;99.90
34095;DHT22;20372;47.080;15.410;2023-05-16T05:40:02;11.80;99.90
34095;DHT22;20372;47.080;15.410;2023-05-16T05:42:28;11.60;99.90
34095;DHT22;20372;47.080;15.410;2023-05-16T05:44:54;11.60;99.90
34095;DHT22;20372;47.080;15.410;2023-05-16T05:47:19;11.50;99.90
34095;DHT22;20372;47.080;15.410;2023-05-16T05:49:46;11.40;99.90
34095;DHT22;20372;47.080;15.410;2023-05-16T05:52:11;11.40;99.90
34095;DHT22;20372;47.080;15.410;2023-05-16T05:54:37;11.40;99.90
34095;DHT22;20372;47.080;15.410;2023-05-16T05:57:03;11.30;99.90
34095;DHT22;20372;47.080;15.410;2023-05-16T05:59:28;11.40;99.90
34095;DHT22;20372;47.080;15.410;2023-05-16T06:01:54;11.40;99.90
34095;DHT22;20372;47.080;15.410;2023-05-16T06:04:20;11.40;99.90
34095;DHT22;20372;47.080;15.410;2023-05-16T06:06:46;11.40;99.90
34095;DHT22;20372;47.080;15.410;2023-05-16T06:09:12;11.40;99.90
34095;DHT22;20372;47.080;15.410;2023-05-16T06:11:40;11.40;99.90
34095;DHT22;20372;47.080;15.410;2023-05-16T06:14:06;11.40;99.90
34095;DHT22;20372;47.080;15.410;2023-05-16T06:16:32;11.40;99.90
34095;DHT22;20372;47.080;15.410;2023-05-16T06:18:58;11.40;99.90
34095;DHT22;20372;47.080;15.410;2023-05-16T06:21:24;11.50;99.90
34095;DHT22;20372;47.080;15.410;2023-05-16T06:23:52;11.60;99.90
34095;DHT22;20372;47.080;15.410;2023-05-16T06:26:21;11.90;99.90
34095;DHT22;20372;47.080;15.410;2023-05-16T06:28:47;11.90;99.90
34095;DHT22;20372;47.080;15.410;2023-05-16T06:31:12;12.10;99.90
34095;DHT22;20372;47.080;15.410;2023-05-16T06:33:38;12.20;99.90
34095;DHT22;20372;47.080;15.410;2023-05-16T06:36:03;11.90;99.90
34095;DHT22;20372;47.080;15.410;2023-05-16T06:38:29;11.80;99.90
34095;DHT22;20372;47.080;15.410;2023-05-16T06:40:55;11.80;99.90
34095;DHT22;20372;47.080;15.410;2023-05-16T06:43:21;11.70;99.90
34095;DHT22;20372;47.080;15.410;2023-05-16T06:45:46;11.60;99.90
34095;DHT22;20372;47.080;15.410;2023-05-16T06:48:12;11.60;99.90
34095;DHT22;20372;47.080;15.410;2023-05-16T06:50:38;11.50;99.90
34095;DHT22;20372;47.080;15.410;2023-05-16T06:53:04;11.40;99.90
34095;DHT22;20372;47.080;15.410;2023-05-16T06:55:34;11.40;99.90
34095;DHT22;20372;47.080;15.410;2023-05-16T06:58:00;11.50;99.90
34095;DHT22;20372;47.080;15.410;2023-05-16T07:00:25;11.60;99.90
34095;DHT22;20372;47.080;15.410;2023-05-16T07:02:51;11.50;99.90
34095;DHT22;20372;47.080;15.410;2023-05-16T07:05:17;11.50;99.90
34095;DHT22;20372;47.080;15.410;2023-05-16T07:07:43;11.20;99.90
34095;DHT22;20372;47.080;15.410;2023-05-16T07:10:08;11.50;99.90
34095;DHT22;20372;47.080;15.410;2023-05-16T07:12:35;11.50;99.90
34095;DHT22;20372;47.080;15.410;2023-05-16T07:15:02;11.40;99.90
34095;DHT22;20372;47.080;15.410;2023-05-16T07:17:28;11.10;99.90
34095;DHT22;20372;47.080;15.410;2023-05-16T07:19:54;11.00;99.90
34095;DHT22;20372;47.080;15.410;2023-05-16T07:22:19;11.10;99.90
34095;DHT22;20372;47.080;15.410;2023-05-16T07:24:45;11.00;99.90
34095;DHT22;20372;47.080;15.410;2023-05-16T07:27:10;10.70;99.90
34095;DHT22;20372;47.080;15.410;2023-05-16T07:29:36;10.90;99.90
34095;DHT22;20372;47.080;15.410;2023-05-16T07:32:02;10.90;99.90
34095;DHT22;20372;47.080;15.410;2023-05-16T07:34:28;10.70;99.90
34095;DHT22;20372;47.080;15.410;2023-05-16T07:36:53;10.70;99.90
34095;DHT22;20372;47.080;15.410;2023-05-16T07:39:19;10.80;99.90
34095;DHT22;20372;47.080;15.410;2023-05-16T07:41:44;10.90;99.90
34095;DHT22;20372;47.080;15.410;2023-05-16T07:44:10;11.00;99.90
34095;DHT22;20372;47.080;15.410;2023-05-16T07:46:36;11.00;99.90
34095;DHT22;20372;47.080;15.410;2023-05-16T07:49:02;11.10;99.90
34095;DHT22;20372;47.080;15.410;2023-05-16T07:51:27;11.10;99.90
34095;DHT22;20372;47.080;15.410;2023-05-16T07:53:53;11.20;99.90
34095;DHT22;20372;47.080;15.410;2023-05-16T07:56:18;11.10;99.90
34095;DHT22;20372;47.080;15.410;2023-05-16T07:58:44;10.80;99.90
34095;DHT22;20372;47.080;15.410;2023-05-16T08:01:10;11.20;99.90
34095;DHT22;20372;47.080;15.410;2023-05-16T08:03:36;11.10;99.90
34095;DHT22;20372;47.080;15.410;2023-05-16T08:06:01;11.00;99.90
34095;DHT22;20372;47.080;15.410;2023-05-16T08:08:27;11.20;99.90
34095;DHT22;20372;47.080;15.410;2023-05-16T08:10:53;11.10;99.90
34095;DHT22;20372;47.080;15.410;2023-05-16T08:13:19;11.50;99.90
34095;DHT22;20372;47.080;15.410;2023-05-16T08:15:44;11.30;99.90
34095;DHT22;20372;47.080;15.410;2023-05-16T08:18:11;11.40;99.90
34095;DHT22;20372;47.080;15.410;2023-05-16T08:20:37;11.20;99.90
34095;DHT22;20372;47.080;15.410;2023-05-16T08:23:02;11.20;99.90
34095;DHT22;20372;47.080;15.410;2023-05-16T08:25:28;11.30;99.90
34095;DHT22;20372;47.080;15.410;2023-05-16T08:27:53;11.20;99.90
34095;DHT22;20372;47.080;15.410;2023-05-16T08:30:19;11.30;99.90
34095;DHT22;20372;47.080;15.410;2023-05-16T08:32:45;11.30;99.90
34095;DHT22;20372;47.080;15.410;2023-05-16T08:35:10;11.50;99.90
34095;DHT22;20372;47.080;15.410;2023-05-16T08:37:37;11.70;99.90
34095;DHT22;20372;47.080;15.410;2023-05-16T08:40:05;11.60;99.90
34095;DHT22;20372;47.080;15.410;2023-05-16T08:42:32;11.50;99.90
34095;DHT22;20372;47.080;15.410;2023-05-16T08:44:58;11.80;99.90
34095;DHT22;20372;47.080;15.410;2023-05-16T08:47:24;11.80;99.90
34095;DHT22;20372;47.080;15.410;2023-05-16T08:49:51;11.80;99.90
34095;DHT22;20372;47.080;15.410;2023-05-16T08:52:20;11.70;99.90
34095;DHT22;20372;47.080;15.410;2023-05-16T08:54:48;11.60;99.90
34095;DHT22;20372;47.080;15.410;2023-05-16T08:57:14;11.30;99.90
34095;DHT22;20372;47.080;15.410;2023-05-16T08:59:41;11.50;99.90
34095;DHT22;20372;47.080;15.410;2023-05-16T09:02:07;11.20;99.90
34095;DHT22;20372;47.080;15.410;2023-05-16T09:04:33;11.30;99.90
34095;DHT22;20372;47.080;15.410;2023-05-16T09:06:59;11.60;99.90
34095;DHT22;20372;47.080;15.410;2023-05-16T09:09:25;11.70;99.90
34095;DHT22;20372;47.080;15.410;2023-05-16T09:11:50;11.50;99.90
34095;DHT22;20372;47.080;15.410;2023-05-16T09:14:16;11.60;99.90
34095;DHT22;20372;47.080;15.410;2023-05-16T09:16:43;11.80;99.90
34095;DHT22;20372;47.080;15.410;2023-05-16T09:19:11;11.70;99.90
34095;DHT22;20372;47.080;15.410;2023-05-16T09:21:36;11.80;99.90
34095;DHT22;20372;47.080;15.410;2023-05-16T09:24:06;11.90;99.90
34095;DHT22;20372;47.080;15.410;2023-05-16T09:26:33;11.80;99.90
34095;DHT22;20372;47.080;15.410;2023-05-16T09:28:58;11.60;99.90
34095;DHT22;20372;47.080;15.410;2023-05-16T09:31:25;11.80;99.90
34095;DHT22;20372;47.080;15.410;2023-05-16T09:34:02;11.40;99.90
34095;DHT22;20372;47.080;15.410;2023-05-16T09:36:30;11.60;99.90
34095;DHT22;20372;47.080;15.410;2023-05-16T09:38:56;11.50;99.90
34095;DHT22;20372;47.080;15.410;2023-05-16T09:41:22;11.60;99.90
34095;DHT22;20372;47.080;15.410;2023-05-16T09:43:47;11.80;99.90
34095;DHT22;20372;47.080;15.410;2023-05-16T09:46:13;11.50;99.90
34095;DHT22;20372;47.080;15.410;2023-05-16T09:48:48;11.50;99.90
34095;DHT22;20372;47.080;15.410;2023-05-16T09:51:16;11.90;99.90
34095;DHT22;20372;47.080;15.410;2023-05-16T09:53:46;11.90;99.90
34095;DHT22;20372;47.080;15.410;2023-05-16T09:56:12;11.30;99.90
34095;DHT22;20372;47.080;15.410;2023-05-16T09:58:38;11.90;99.90
34095;DHT22;20372;47.080;15.410;2023-05-16T10:01:04;12.20;99.90
34095;DHT22;20372;47.080;15.410;2023-05-16T10:03:34;11.90;99.90
34095;DHT22;20372;47.080;15.410;2023-05-16T10:06:01;12.30;99.90
34095;DHT22;20372;47.080;15.410;2023-05-16T10:08:27;11.80;99.90
34095;DHT22;20372;47.080;15.410;2023-05-16T10:10:55;11.80;99.90
34095;DHT22;20372;47.080;15.410;2023-05-16T10:13:22;11.60;99.90
34095;DHT22;20372;47.080;15.410;2023-05-16T10:15:48;11.30;99.90
34095;DHT22;20372;47.080;15.410;2023-05-16T10:18:15;11.30;99.90
34095;DHT22;20372;47.080;15.410;2023-05-16T10:20:43;11.50;99.90
34095;DHT22;20372;47.080;15.410;2023-05-16T10:23:10;11.90;99.90
34095;DHT22;20372;47.080;15.410;2023-05-16T10:25:39;12.00;99.90
34095;DHT22;20372;47.080;15.410;2023-05-16T10:28:06;11.70;99.90
34095;DHT22;20372;47.080;15.410;2023-05-16T10:30:33;11.60;99.90
34095;DHT22;20372;47.080;15.410;2023-05-16T10:33:00;11.50;99.90
34095;DHT22;20372;47.080;15.410;2023-05-16T10:35:26;11.30;99.90
34095;DHT22;20372;47.080;15.410;2023-05-16T10:37:52;11.90;99.90
34095;DHT22;20372;47.080;15.410;2023-05-16T10:40:17;11.80;99.90
34095;DHT22;20372;47.080;15.410;2023-05-16T10:42:56;11.30;99.90
34095;DHT22;20372;47.080;15.410;2023-05-16T10:45:22;11.70;99.90
34095;DHT22;20372;47.080;15.410;2023-05-16T10:47:55;11.80;99.90
34095;DHT22;20372;47.080;15.410;2023-05-16T10:50:42;11.70;99.90
34095;DHT22;20372;47.080;15.410;2023-05-16T10:53:15;11.50;99.90
34095;DHT22;20372;47.080;15.410;2023-05-16T10:55:48;11.50;99.90
34095;DHT22;20372;47.080;15.410;2023-05-16T10:58:17;11.60;99.90
34095;DHT22;20372;47.080;15.410;2023-05-16T11:00:43;11.80;99.90
34095;DHT22;20372;47.080;15.410;2023-05-16T11:03:18;11.60;99.90
34095;DHT22;20372;47.080;15.410;2023-05-16T11:05:52;12.00;99.90
34095;DHT22;20372;47.080;15.410;2023-05-16T11:08:21;11.70;99.90
34095;DHT22;20372;47.080;15.410;2023-05-16T11:10:46;12.10;99.90
34095;DHT22;20372;47.080;15.410;2023-05-16T11:13:12;12.00;99.90
34095;DHT22;20372;47.080;15.410;2023-05-16T11:15:40;11.60;99.90
34095;DHT22;20372;47.080;15.410;2023-05-16T11:18:13;11.80;99.90
34095;DHT22;20372;47.080;15.410;2023-05-16T11:20:39;12.00;99.90
34095;DHT22;20372;47.080;15.410;2023-05-16T11:25:47;12.00;99.90
34095;DHT22;20372;47.080;15.410;2023-05-16T11:28:14;12.10;99.90
34095;DHT22;20372;47.080;15.410;2023-05-16T11:30:42;11.80;99.90
34095;DHT22;20372;47.080;15.410;2023-05-16T11:33:08;11.80;99.90
34095;DHT22;20372;47.080;15.410;2023-05-16T11:35:34;11.80;99.90
34095;DHT22;20372;47.080;15.410;2023-05-16T11:37:59;11.70;99.90
34095;DHT22;20372;47.080;15.410;2023-05-16T11:40:25;11.30;99.90
34095;DHT22;20372;47.080;15.410;2023-05-16T11:42:50;11.50;99.90
34095;DHT22;20372;47.080;15.410;2023-05-16T11:45:17;11.40;99.90
34095;DHT22;20372;47.080;15.410;2023-05-16T11:47:45;11.50;99.90
34095;DHT22;20372;47.080;15.410;2023-05-16T11:50:12;11.40;99.90
34095;DHT22;20372;47.080;15.410;2023-05-16T11:52:38;11.60;99.90
34095;DHT22;20372;47.080;15.410;2023-05-16T11:55:04;11.80;99.90
34095;DHT22;20372;47.080;15.410;2023-05-16T11:57:31;11.50;99.90
34095;DHT22;20372;47.080;15.410;2023-05-16T12:00:04;11.60;99.90
34095;DHT22;20372;47.080;15.410;2023-05-16T12:02:38;11.70;99.90
34095;DHT22;20372;47.080;15.410;2023-05-16T12:05:07;11.70;99.90
34095;DHT22;20372;47.080;15.410;2023-05-16T12:07:34;11.70;99.90
34095;DHT22;20372;47.080;15.410;2023-05-16T12:10:03;11.90;99.90
34095;DHT22;20372;47.080;15.410;2023-05-16T12:12:29;11.90;99.90
34095;DHT22;20372;47.080;15.410;2023-05-16T12:14:54;11.70;99.90
34095;DHT22;20372;47.080;15.410;2023-05-16T12:17:20;11.50;99.90
34095;DHT22;20372;47.080;15.410;2023-05-16T12:19:46;11.60;99.90
34095;DHT22;20372;47.080;15.410;2023-05-16T12:22:18;11.70;99.90
34095;DHT22;20372;47.080;15.410;2023-05-16T12:24:44;11.60;99.90
34095;DHT22;20372;47.080;15.410;2023-05-16T12:27:10;11.60;99.90
34095;DHT22;20372;47.080;15.410;2023-05-16T12:29:37;11.50;99.90
34095;DHT22;20372;47.080;15.410;2023-05-16T12:32:03;11.50;99.90
34095;DHT22;20372;47.080;15.410;2023-05-16T12:34:31;11.80;99.90
34095;DHT22;20372;47.080;15.410;2023-05-16T12:36:57;11.70;99.90
34095;DHT22;20372;47.080;15.410;2023-05-16T12:39:23;11.70;99.90
34095;DHT22;20372;47.080;15.410;2023-05-16T12:41:52;11.90;99.90
34095;DHT22;20372;47.080;15.410;2023-05-16T12:44:19;11.80;99.90
34095;DHT22;20372;47.080;15.410;2023-05-16T12:46:46;11.90;99.90
34095;DHT22;20372;47.080;15.410;2023-05-16T12:49:13;12.00;99.90
34095;DHT22;20372;47.080;15.410;2023-05-16T12:51:49;12.00;99.90
34095;DHT22;20372;47.080;15.410;2023-05-16T12:54:15;12.10;99.90
34095;DHT22;20372;47.080;15.410;2023-05-16T12:56:41;11.90;99.90
34095;DHT22;20372;47.080;15.410;2023-05-16T12:59:07;12.40;99.90
34095;DHT22;20372;47.080;15.410;2023-05-16T13:01:33;12.50;99.90
34095;DHT22;20372;47.080;15.410;2023-05-16T13:03:59;12.70;99.90
34095;DHT22;20372;47.080;15.410;2023-05-16T13:06:25;12.80;99.90
34095;DHT22;20372;47.080;15.410;2023-05-16T13:08:51;12.80;99.90
34095;DHT22;20372;47.080;15.410;2023-05-16T13:11:16;12.80;99.90
34095;DHT22;20372;47.080;15.410;2023-05-16T13:13:43;12.80;99.90
34095;DHT22;20372;47.080;15.410;2023-05-16T13:16:09;12.80;99.90
34095;DHT22;20372;47.080;15.410;2023-05-16T13:18:34;12.80;99.90
34095;DHT22;20372;47.080;15.410;2023-05-16T13:21:01;12.90;99.90
34095;DHT22;20372;47.080;15.410;2023-05-16T13:23:28;13.00;99.90
34095;DHT22;20372;47.080;15.410;2023-05-16T13:25:53;13.00;99.90
34095;DHT22;20372;47.080;15.410;2023-05-16T13:28:19;13.00;99.90
34095;DHT22;20372;47.080;15.410;2023-05-16T13:30:45;12.90;99.90
34095;DHT22;20372;47.080;15.410;2023-05-16T13:33:11;12.90;99.90
34095;DHT22;20372;47.080;15.410;2023-05-16T13:35:36;12.90;99.90
34095;DHT22;20372;47.080;15.410;2023-05-16T13:38:02;12.80;99.90
34095;DHT22;20372;47.080;15.410;2023-05-16T13:40:28;12.90;99.90
34095;DHT22;20372;47.080;15.410;2023-05-16T13:42:55;12.90;99.90
34095;DHT22;20372;47.080;15.410;2023-05-16T13:45:21;13.00;99.90
34095;DHT22;20372;47.080;15.410;2023-05-16T13:47:46;12.90;99.90
34095;DHT22;20372;47.080;15.410;2023-05-16T13:50:12;12.90;99.90
34095;DHT22;20372;47.080;15.410;2023-05-16T13:52:38;13.00;99.90
34095;DHT22;20372;47.080;15.410;2023-05-16T13:55:04;13.00;99.90
34095;DHT22;20372;47.080;15.410;2023-05-16T13:57:30;13.00;99.90
34095;DHT22;20372;47.080;15.410;2023-05-16T13:59:57;13.00;99.90
34095;DHT22;20372;47.080;15.410;2023-05-16T14:02:23;12.90;99.90
34095;DHT22;20372;47.080;15.410;2023-05-16T14:04:50;12.90;99.90
34095;DHT22;20372;47.080;15.410;2023-05-16T14:07:16;12.80;99.90
34095;DHT22;20372;47.080;15.410;2023-05-16T14:09:42;12.80;99.90
34095;DHT22;20372;47.080;15.410;2023-05-16T14:12:08;12.80;99.90
34095;DHT22;20372;47.080;15.410;2023-05-16T14:14:34;12.70;99.90
34095;DHT22;20372;47.080;15.410;2023-05-16T14:17:00;12.70;99.90
34095;DHT22;20372;47.080;15.410;2023-05-16T14:19:25;12.60;99.90
34095;DHT22;20372;47.080;15.410;2023-05-16T14:21:51;12.70;99.90
34095;DHT22;20372;47.080;15.410;2023-05-16T14:24:17;12.70;99.90
34095;DHT22;20372;47.080;15.410;2023-05-16T14:26:42;12.60;99.90
34095;DHT22;20372;47.080;15.410;2023-05-16T14:29:08;12.60;99.90
34095;DHT22;20372;47.080;15.410;2023-05-16T14:31:33;12.50;99.90
34095;DHT22;20372;47.080;15.410;2023-05-16T14:34:01;12.50;99.90
34095;DHT22;20372;47.080;15.410;2023-05-16T14:36:26;12.40;99.90
34095;DHT22;20372;47.080;15.410;2023-05-16T14:38:52;12.30;99.90
34095;DHT22;20372;47.080;15.410;2023-05-16T14:41:17;12.20;99.90
34095;DHT22;20372;47.080;15.410;2023-05-16T14:43:43;12.00;99.90
34095;DHT22;20372;47.080;15.410;2023-05-16T14:46:09;12.00;99.90
34095;DHT22;20372;47.080;15.410;2023-05-16T14:48:35;11.90;99.90
34095;DHT22;20372;47.080;15.410;2023-05-16T14:51:01;11.90;99.90
34095;DHT22;20372;47.080;15.410;2023-05-16T14:53:26;11.80;99.90
34095;DHT22;20372;47.080;15.410;2023-05-16T14:55:52;11.80;99.90
34095;DHT22;20372;47.080;15.410;2023-05-16T14:58:17;11.90;99.90
34095;DHT22;20372;47.080;15.410;2023-05-16T15:00:43;11.90;99.90
34095;DHT22;20372;47.080;15.410;2023-05-16T15:03:09;12.00;99.90
34095;DHT22;20372;47.080;15.410;2023-05-16T15:05:34;12.00;99.90
34095;DHT22;20372;47.080;15.410;2023-05-16T15:08:00;11.80;99.90
34095;DHT22;20372;47.080;15.410;2023-05-16T15:10:27;11.50;99.90
34095;DHT22;20372;47.080;15.410;2023-05-16T15:12:53;11.30;99.90
34095;DHT22;20372;47.080;15.410;2023-05-16T15:15:18;11.00;99.90
34095;DHT22;20372;47.080;15.410;2023-05-16T15:17:44;11.00;99.90
34095;DHT22;20372;47.080;15.410;2023-05-16T15:20:10;10.70;99.90
34095;DHT22;20372;47.080;15.410;2023-05-16T15:22:37;10.70;99.90